• Join FlightAware (Why Join?)
  • Login
  • US Flag 
09:24PM EST


 

Airport Tracker/Info


-or-


 

Live Flight TrackerFlight Track Log ✈ N814TB ✈ 30-Jun-2013 ✈ KDEN - KSAA

Flight Track Log - Related Links

Times and Time Zones

All times are in EDT time to prevent confusion due to time zone crossing. See the N814TB flight status page for this flight to view local times or setup timezone preferences in your user account.

Time Position Orientation Groundspeed Altitude Reporting Facility
EDT Latitude Longitude Course Direction KTS MPH feet Rate Location/Type
01:45PM 39.9050 -104.7169 337° Northwest 157 181 16,000  Level Denver Center
01:46PM 39.9542 -104.7447 337° Northwest 204 235 8,600 -2,760 Descending Denver Center
01:47PM 40.0078 -104.7725 338° Northwest 193 222 10,300 1,140 Climbing Denver Center
01:48PM 40.0597 -104.8008 337° Northwest 201 231 11,000 480 Climbing Denver Center
01:49PM 40.1242 -104.8286 342° North 223 257 11,400 420 Climbing Denver Center
01:51PM 40.1842 -104.8503 345° North 224 258 11,900 240 Climbing Denver Center
01:52PM 40.2508 -104.8753 344° North 230 265 12,000 540 Climbing Denver Center
01:53PM 40.3122 -104.8983 339° North 229 264 13,100 1,260 Climbing Denver Center
01:54PM 40.3672 -104.9200 343° North 195 224 14,700 1,440 Climbing Denver Center
01:55PM 40.4136 -104.9369 344° North 177 204 16,100 1,320 Climbing Denver Center
01:56PM 40.4569 -104.9547 343° North 163 188 17,500 1,200 Climbing Denver Center
01:57PM 40.5028 -104.9717 344° North 159 183 18,600 1,020 Climbing Denver Center
01:58PM 40.5456 -104.9875 344° North 161 185 19,700 660 Climbing Denver Center
01:59PM 40.5978 -105.0072 344° North 182 209 20,000 120 Climbing Denver Center
02:00PM 40.6556 -105.0272 345° North 218 251 20,000  Level Denver Center
02:01PM 40.7189 -105.0522 343° North 220 253 20,000  Level Denver Center
02:02PM 40.7742 -105.0753 342° North 212 244 20,000  Level Denver Center
02:03PM 40.8172 -105.1250 319° Northwest 214 246 20,000  Level Denver Center
02:04PM 40.8664 -105.1731 324° Northwest 226 260 20,000  Level Denver Center
02:05PM 40.9258 -105.2208 329° Northwest 225 259 20,000  Level Denver Center
02:06PM 40.9844 -105.2697 328° Northwest 223 257 20,000  Level Denver Center
02:07PM 41.0275 -105.3047 328° Northwest 225 259 20,000  Level Denver Center
02:08PM 41.0861 -105.3789 316° Northwest 227 261 20,000  Level Denver Center
02:09PM 41.1275 -105.4319 316° Northwest 223 257 20,000  Level Denver Center
02:10PM 41.1758 -105.4992 314° West 224 258 20,000  Level Denver Center
02:11PM 41.2000 -105.5717 294° West 238 274 20,000  Level Denver Center
02:12PM 41.2178 -105.6642 284° West 231 266 20,000  Level Denver Center
02:13PM 41.2328 -105.7450 284° West 235 270 20,000  Level Denver Center
02:15PM 41.2461 -105.8512 280° West  Level FlightAware Approximate
02:15PM 41.2572 -105.9283 280° West 243 280 20,000  Level Denver Center
02:16PM 41.2683 -106.0103 280° West 236 272 20,000  Level Denver Center
02:17PM 41.2892 -106.1019 287° West 231 266 20,000 -360 Level Denver Center
02:18PM 41.3150 -106.1692 297° West 213 245 19,300 -1,020 Descending Denver Center
02:19PM 41.3356 -106.2361 292° West 177 204 17,900 -1,440 Descending Denver Center
02:21PM 41.3564 -106.2864 299° West 166 191 16,400 -1,440 Descending Denver Center
02:22PM 41.3647 -106.3525 280° West 167 192 14,900 -1,200 Descending Denver Center
02:23PM 41.3578 -106.4050 260° West 162 186 13,900 -1,020 Descending Denver Center